sensor_id;sensor_type;location;lat;lon;timestamp;pressure;altitude;pressure_sealevel;temperature;humidity
71764;BME280;59602;52.142;5.408;2023-02-22T00:00:13;101706.38;;;7.80;90.25
71764;BME280;59602;52.142;5.408;2023-02-22T00:02:45;101711.34;;;7.78;89.73
71764;BME280;59602;52.142;5.408;2023-02-22T00:05:15;101693.75;;;7.72;89.60
71764;BME280;59602;52.142;5.408;2023-02-22T00:07:46;101704.13;;;7.69;89.68
71764;BME280;59602;52.142;5.408;2023-02-22T00:10:15;101710.31;;;7.70;90.07
71764;BME280;59602;52.142;5.408;2023-02-22T00:12:47;101703.34;;;7.69;89.87
71764;BME280;59602;52.142;5.408;2023-02-22T00:15:16;101712.59;;;7.68;89.72
71764;BME280;59602;52.142;5.408;2023-02-22T00:17:43;101699.84;;;7.68;89.43
71764;BME280;59602;52.142;5.408;2023-02-22T00:20:11;101709.09;;;7.67;89.82
71764;BME280;59602;52.142;5.408;2023-02-22T00:22:42;101697.16;;;7.68;90.11
71764;BME280;59602;52.142;5.408;2023-02-22T00:25:09;101702.66;;;7.72;89.83
71764;BME280;59602;52.142;5.408;2023-02-22T00:27:36;101709.53;;;7.69;90.06
71764;BME280;59602;52.142;5.408;2023-02-22T00:30:04;101704.91;;;7.70;89.81
71764;BME280;59602;52.142;5.408;2023-02-22T00:32:31;101705.72;;;7.71;89.92
71764;BME280;59602;52.142;5.408;2023-02-22T00:34:58;101708.44;;;7.71;89.51
71764;BME280;59602;52.142;5.408;2023-02-22T00:37:24;101703.00;;;7.71;89.27
71764;BME280;59602;52.142;5.408;2023-02-22T00:39:51;101707.63;;;7.70;89.46
71764;BME280;59602;52.142;5.408;2023-02-22T00:42:17;101710.69;;;7.68;89.29
71764;BME280;59602;52.142;5.408;2023-02-22T00:44:44;101704.91;;;7.70;89.73
71764;BME280;59602;52.142;5.408;2023-02-22T00:47:11;101701.41;;;7.69;89.79
71764;BME280;59602;52.142;5.408;2023-02-22T00:49:37;101697.16;;;7.68;90.34
71764;BME280;59602;52.142;5.408;2023-02-22T00:52:04;101686.31;;;7.68;89.73
71764;BME280;59602;52.142;5.408;2023-02-22T00:54:31;101687.44;;;7.67;89.85
71764;BME280;59602;52.142;5.408;2023-02-22T00:56:58;101684.28;;;7.65;90.26
71764;BME280;59602;52.142;5.408;2023-02-22T00:59:24;101682.38;;;7.66;89.80
71764;BME280;59602;52.142;5.408;2023-02-22T01:01:51;101681.91;;;7.64;89.71
71764;BME280;59602;52.142;5.408;2023-02-22T01:04:17;101679.53;;;7.62;89.93
71764;BME280;59602;52.142;5.408;2023-02-22T01:06:44;101669.84;;;7.61;90.01
71764;BME280;59602;52.142;5.408;2023-02-22T01:09:12;101673.69;;;7.60;89.93
71764;BME280;59602;52.142;5.408;2023-02-22T01:11:38;101664.31;;;7.58;89.93
71764;BME280;59602;52.142;5.408;2023-02-22T01:14:05;101672.09;;;7.59;90.22
71764;BME280;59602;52.142;5.408;2023-02-22T01:16:35;101666.25;;;7.57;90.17
71764;BME280;59602;52.142;5.408;2023-02-22T01:19:01;101671.19;;;7.55;90.29
71764;BME280;59602;52.142;5.408;2023-02-22T01:21:28;101657.53;;;7.52;90.25
71764;BME280;59602;52.142;5.408;2023-02-22T01:23:54;101670.28;;;7.51;90.03
71764;BME280;59602;52.142;5.408;2023-02-22T01:26:21;101658.69;;;7.51;90.02
71764;BME280;59602;52.142;5.408;2023-02-22T01:28:48;101664.56;;;7.53;90.12
71764;BME280;59602;52.142;5.408;2023-02-22T01:31:14;101658.69;;;7.51;89.92
71764;BME280;59602;52.142;5.408;2023-02-22T01:33:41;101657.88;;;7.50;89.94
71764;BME280;59602;52.142;5.408;2023-02-22T01:36:09;101648.53;;;7.47;90.34
71764;BME280;59602;52.142;5.408;2023-02-22T01:38:37;101661.25;;;7.47;90.18
71764;BME280;59602;52.142;5.408;2023-02-22T01:41:04;101658.88;;;7.45;90.60
71764;BME280;59602;52.142;5.408;2023-02-22T01:43:32;101647.75;;;7.47;90.23
71764;BME280;59602;52.142;5.408;2023-02-22T01:46:04;101639.28;;;7.48;90.37
71764;BME280;59602;52.142;5.408;2023-02-22T01:48:38;101644.34;;;7.50;90.06
71764;BME280;59602;52.142;5.408;2023-02-22T01:51:15;101643.09;;;7.47;90.08
71764;BME280;59602;52.142;5.408;2023-02-22T01:56:17;101629.69;;;7.51;89.80
71764;BME280;59602;52.142;5.408;2023-02-22T01:58:49;101641.63;;;7.50;90.14
71764;BME280;59602;52.142;5.408;2023-02-22T02:01:17;101641.63;;;7.50;90.03
71764;BME280;59602;52.142;5.408;2023-02-22T02:03:45;101638.06;;;7.46;90.08
71764;BME280;59602;52.142;5.408;2023-02-22T02:06:15;101636.47;;;7.45;89.52
71764;BME280;59602;52.142;5.408;2023-02-22T02:08:56;101628.34;;;7.45;89.74
71764;BME280;59602;52.142;5.408;2023-02-22T02:11:25;101627.44;;;7.41;88.96
71764;BME280;59602;52.142;5.408;2023-02-22T02:13:55;101622.84;;;7.41;89.31
71764;BME280;59602;52.142;5.408;2023-02-22T02:16:24;101621.94;;;7.37;89.02
71764;BME280;59602;52.142;5.408;2023-02-22T02:18:53;101623.03;;;7.36;89.31
71764;BME280;59602;52.142;5.408;2023-02-22T02:21:41;101616.41;;;7.34;89.20
71764;BME280;59602;52.142;5.408;2023-02-22T02:27:18;101611.22;;;7.28;89.05
71764;BME280;59602;52.142;5.408;2023-02-22T02:34:57;101607.94;;;7.23;89.21
71764;BME280;59602;52.142;5.408;2023-02-22T02:37:35;101612.09;;;7.20;89.12
71764;BME280;59602;52.142;5.408;2023-02-22T02:42:39;101588.53;;;7.21;89.08
71764;BME280;59602;52.142;5.408;2023-02-22T02:45:12;101591.25;;;7.21;88.90
71764;BME280;59602;52.142;5.408;2023-02-22T02:47:44;101587.22;;;7.15;88.75
71764;BME280;59602;52.142;5.408;2023-02-22T02:50:17;101591.16;;;7.17;88.44
71764;BME280;59602;52.142;5.408;2023-02-22T02:52:46;101583.69;;;7.14;88.34
71764;BME280;59602;52.142;5.408;2023-02-22T02:55:16;101576.28;;;7.11;87.93
71764;BME280;59602;52.142;5.408;2023-02-22T02:57:44;101578.84;;;7.07;88.02
71764;BME280;59602;52.142;5.408;2023-02-22T03:00:15;101579.66;;;7.08;87.62
71764;BME280;59602;52.142;5.408;2023-02-22T03:02:57;101573.00;;;7.05;88.31
71764;BME280;59602;52.142;5.408;2023-02-22T03:08:48;101572.75;;;6.98;87.78
71764;BME280;59602;52.142;5.408;2023-02-22T03:11:25;101568.81;;;6.96;88.00
71764;BME280;59602;52.142;5.408;2023-02-22T03:14:01;101570.06;;;6.98;88.00
71764;BME280;59602;52.142;5.408;2023-02-22T03:16:51;101565.31;;;6.95;88.07
71764;BME280;59602;52.142;5.408;2023-02-22T03:19:36;101558.69;;;6.93;88.24
71764;BME280;59602;52.142;5.408;2023-02-22T03:22:22;101558.78;;;6.96;88.11
71764;BME280;59602;52.142;5.408;2023-02-22T03:24:57;101560.94;;;6.91;88.12
71764;BME280;59602;52.142;5.408;2023-02-22T03:27:32;101559.25;;;6.86;88.11
71764;BME280;59602;52.142;5.408;2023-02-22T03:30:05;101550.69;;;6.84;88.29
71764;BME280;59602;52.142;5.408;2023-02-22T03:32:38;101550.69;;;6.84;88.05
71764;BME280;59602;52.142;5.408;2023-02-22T03:35:09;101552.94;;;6.82;88.25
71764;BME280;59602;52.142;5.408;2023-02-22T03:37:41;101549.75;;;6.80;88.27
71764;BME280;59602;52.142;5.408;2023-02-22T03:40:14;101547.06;;;6.80;87.95
71764;BME280;59602;52.142;5.408;2023-02-22T03:42:46;101549.75;;;6.80;87.54
71764;BME280;59602;52.142;5.408;2023-02-22T03:45:16;101543.44;;;6.76;87.84
71764;BME280;59602;52.142;5.408;2023-02-22T03:47:47;101547.16;;;6.71;87.86
71764;BME280;59602;52.142;5.408;2023-02-22T03:50:19;101542.75;;;6.67;88.11
71764;BME280;59602;52.142;5.408;2023-02-22T03:52:46;101540.84;;;6.67;87.88
71764;BME280;59602;52.142;5.408;2023-02-22T03:55:14;101543.91;;;6.65;88.34
71764;BME280;59602;52.142;5.408;2023-02-22T03:57:47;101531.03;;;6.62;88.20
71764;BME280;59602;52.142;5.408;2023-02-22T04:00:22;101530.59;;;6.60;88.49
71764;BME280;59602;52.142;5.408;2023-02-22T04:02:50;101528.69;;;6.61;88.24
71764;BME280;59602;52.142;5.408;2023-02-22T04:05:16;101527.41;;;6.58;88.43
71764;BME280;59602;52.142;5.408;2023-02-22T04:07:43;101529.00;;;6.59;88.51
71764;BME280;59602;52.142;5.408;2023-02-22T04:10:12;101532.19;;;6.61;88.78
71764;BME280;59602;52.142;5.408;2023-02-22T04:12:40;101519.31;;;6.58;88.83
71764;BME280;59602;52.142;5.408;2023-02-22T04:15:08;101522.38;;;6.57;88.50
71764;BME280;59602;52.142;5.408;2023-02-22T04:17:35;101513.03;;;6.54;88.74
71764;BME280;59602;52.142;5.408;2023-02-22T04:20:02;101511.09;;;6.55;89.00
71764;BME280;59602;52.142;5.408;2023-02-22T04:22:29;101512.22;;;6.54;89.23
71764;BME280;59602;52.142;5.408;2023-02-22T04:24:55;101507.94;;;6.53;88.98
71764;BME280;59602;52.142;5.408;2023-02-22T04:27:22;101509.06;;;6.52;89.26
71764;BME280;59602;52.142;5.408;2023-02-22T04:29:49;101503.19;;;6.50;89.26
71764;BME280;59602;52.142;5.408;2023-02-22T04:32:16;101503.19;;;6.50;89.72
71764;BME280;59602;52.142;5.408;2023-02-22T04:34:42;101498.72;;;6.54;89.50
71764;BME280;59602;52.142;5.408;2023-02-22T04:37:09;101499.94;;;6.56;89.51
71764;BME280;59602;52.142;5.408;2023-02-22T04:39:36;101493.31;;;6.54;89.64
71764;BME280;59602;52.142;5.408;2023-02-22T04:42:03;101491.75;;;6.53;89.87
71764;BME280;59602;52.142;5.408;2023-02-22T04:44:31;101485.88;;;6.51;89.70
71764;BME280;59602;52.142;5.408;2023-02-22T04:46:59;101481.25;;;6.51;89.90
71764;BME280;59602;52.142;5.408;2023-02-22T04:49:25;101481.59;;;6.50;90.25
71764;BME280;59602;52.142;5.408;2023-02-22T04:51:52;101479.25;;;6.48;89.99
71764;BME280;59602;52.142;5.408;2023-02-22T04:54:18;101469.22;;;6.49;90.08
71764;BME280;59602;52.142;5.408;2023-02-22T04:56:45;101468.91;;;6.50;90.11
71764;BME280;59602;52.142;5.408;2023-02-22T04:59:12;101459.97;;;6.50;90.05
71764;BME280;59602;52.142;5.408;2023-02-22T05:01:38;101467.66;;;6.48;90.15
71764;BME280;59602;52.142;5.408;2023-02-22T05:04:06;101465.16;;;6.42;89.70
71764;BME280;59602;52.142;5.408;2023-02-22T05:06:34;101459.28;;;6.40;89.92
71764;BME280;59602;52.142;5.408;2023-02-22T05:09:02;101458.50;;;6.40;90.25
71764;BME280;59602;52.142;5.408;2023-02-22T05:11:30;101461.22;;;6.40;90.50
71764;BME280;59602;52.142;5.408;2023-02-22T05:13:56;101448.94;;;6.42;89.99
71764;BME280;59602;52.142;5.408;2023-02-22T05:16:23;101448.03;;;6.38;90.24
71764;BME280;59602;52.142;5.408;2023-02-22T05:18:51;101451.53;;;6.39;90.13
71764;BME280;59602;52.142;5.408;2023-02-22T05:21:17;101449.94;;;6.38;90.62
71764;BME280;59602;52.142;5.408;2023-02-22T05:23:45;101443.00;;;6.37;90.18
71764;BME280;59602;52.142;5.408;2023-02-22T05:26:11;101450.31;;;6.36;90.96
71764;BME280;59602;52.142;5.408;2023-02-22T05:28:38;101439.50;;;6.36;90.88
71764;BME280;59602;52.142;5.408;2023-02-22T05:31:04;101442.63;;;6.38;91.19
71764;BME280;59602;52.142;5.408;2023-02-22T05:33:32;101442.63;;;6.38;90.99
71764;BME280;59602;52.142;5.408;2023-02-22T05:35:59;101434.44;;;6.35;90.55
71764;BME280;59602;52.142;5.408;2023-02-22T05:38:25;101439.69;;;6.31;91.03
71764;BME280;59602;52.142;5.408;2023-02-22T05:40:52;101441.28;;;6.32;91.45
71764;BME280;59602;52.142;5.408;2023-02-22T05:43:19;101429.34;;;6.33;91.12
71764;BME280;59602;52.142;5.408;2023-02-22T05:45:45;101435.91;;;6.32;91.03
71764;BME280;59602;52.142;5.408;2023-02-22T05:48:12;101425.09;;;6.32;91.45
71764;BME280;59602;52.142;5.408;2023-02-22T05:50:38;101429.03;;;6.35;91.29
71764;BME280;59602;52.142;5.408;2023-02-22T05:53:06;101431.72;;;6.35;91.54
71764;BME280;59602;52.142;5.408;2023-02-22T05:55:32;101432.50;;;6.35;91.54
71764;BME280;59602;52.142;5.408;2023-02-22T05:58:00;101419.34;;;6.34;91.57
71764;BME280;59602;52.142;5.408;2023-02-22T06:00:29;101421.56;;;6.32;92.14
71764;BME280;59602;52.142;5.408;2023-02-22T06:03:05;101421.94;;;6.30;91.69
71764;BME280;59602;52.142;5.408;2023-02-22T06:05:33;101408.75;;;6.29;92.31
71764;BME280;59602;52.142;5.408;2023-02-22T06:08:01;101411.47;;;6.29;92.12
71764;BME280;59602;52.142;5.408;2023-02-22T06:10:28;101411.47;;;6.29;92.11
71764;BME280;59602;52.142;5.408;2023-02-22T06:12:56;101404.94;;;6.30;92.11
71764;BME280;59602;52.142;5.408;2023-02-22T06:15:23;101403.03;;;6.30;92.25
71764;BME280;59602;52.142;5.408;2023-02-22T06:17:51;101403.50;;;6.32;92.79
71764;BME280;59602;52.142;5.408;2023-02-22T06:20:20;101400.78;;;6.32;92.76
71764;BME280;59602;52.142;5.408;2023-02-22T06:22:50;101399.66;;;6.33;92.77
71764;BME280;59602;52.142;5.408;2023-02-22T06:25:21;101401.69;;;6.36;92.86
71764;BME280;59602;52.142;5.408;2023-02-22T06:27:50;101410.56;;;6.37;92.73
71764;BME280;59602;52.142;5.408;2023-02-22T06:30:19;101405.19;;;6.37;92.80
71764;BME280;59602;52.142;5.408;2023-02-22T06:32:46;101405.97;;;6.37;92.58
71764;BME280;59602;52.142;5.408;2023-02-22T06:35:13;101407.41;;;6.35;93.07
71764;BME280;59602;52.142;5.408;2023-02-22T06:37:40;101415.19;;;6.36;93.15
71764;BME280;59602;52.142;5.408;2023-02-22T06:40:07;101414.38;;;6.36;92.69
71764;BME280;59602;52.142;5.408;2023-02-22T06:42:37;101403.94;;;6.34;92.91
71764;BME280;59602;52.142;5.408;2023-02-22T06:45:04;101407.53;;;6.38;93.24
71764;BME280;59602;52.142;5.408;2023-02-22T06:47:31;101405.19;;;6.37;92.99
71764;BME280;59602;52.142;5.408;2023-02-22T06:49:58;101403.25;;;6.37;93.02
71764;BME280;59602;52.142;5.408;2023-02-22T06:52:26;101395.16;;;6.37;93.09
71764;BME280;59602;52.142;5.408;2023-02-22T06:54:52;101387.06;;;6.37;92.84
71764;BME280;59602;52.142;5.408;2023-02-22T06:57:19;101386.94;;;6.34;92.99
71764;BME280;59602;52.142;5.408;2023-02-22T06:59:45;101391.88;;;6.32;93.20
71764;BME280;59602;52.142;5.408;2023-02-22T07:02:12;101389.63;;;6.34;93.69
71764;BME280;59602;52.142;5.408;2023-02-22T07:04:40;101389.63;;;6.34;93.35
71764;BME280;59602;52.142;5.408;2023-02-22T07:07:09;101392.69;;;6.32;93.65
71764;BME280;59602;52.142;5.408;2023-02-22T07:09:36;101393.91;;;6.35;93.28
71764;BME280;59602;52.142;5.408;2023-02-22T07:12:03;101384.34;;;6.37;93.61
71764;BME280;59602;52.142;5.408;2023-02-22T07:14:29;101385.91;;;6.38;93.18
71764;BME280;59602;52.142;5.408;2023-02-22T07:16:56;101385.25;;;6.41;93.34
71764;BME280;59602;52.142;5.408;2023-02-22T07:19:22;101387.63;;;6.43;93.21
71764;BME280;59602;52.142;5.408;2023-02-22T07:21:50;101396.16;;;6.45;93.50
71764;BME280;59602;52.142;5.408;2023-02-22T07:24:22;101399.53;;;6.42;93.25
71764;BME280;59602;52.142;5.408;2023-02-22T07:26:49;101394.16;;;6.42;93.02
71764;BME280;59602;52.142;5.408;2023-02-22T07:29:15;101399.41;;;6.38;93.26
71764;BME280;59602;52.142;5.408;2023-02-22T07:31:42;101395.16;;;6.37;93.28
71764;BME280;59602;52.142;5.408;2023-02-22T07:34:08;101405.19;;;6.37;93.49
71764;BME280;59602;52.142;5.408;2023-02-22T07:36:35;101403.72;;;6.39;93.20
71764;BME280;59602;52.142;5.408;2023-02-22T07:39:01;101397.97;;;6.41;93.15
71764;BME280;59602;52.142;5.408;2023-02-22T07:41:28;101397.63;;;6.42;93.36
71764;BME280;59602;52.142;5.408;2023-02-22T07:43:56;101397.75;;;6.46;93.16
71764;BME280;59602;52.142;5.408;2023-02-22T07:46:22;101399.75;;;6.49;93.36
71764;BME280;59602;52.142;5.408;2023-02-22T07:48:49;101401.34;;;6.50;93.21
71764;BME280;59602;52.142;5.408;2023-02-22T07:51:16;101397.06;;;6.49;93.33
71764;BME280;59602;52.142;5.408;2023-02-22T07:53:43;101406.75;;;6.50;92.99
71764;BME280;59602;52.142;5.408;2023-02-22T07:56:10;101410.56;;;6.49;93.07
71764;BME280;59602;52.142;5.408;2023-02-22T07:58:37;101410.13;;;6.47;93.31
71764;BME280;59602;52.142;5.408;2023-02-22T08:01:03;101406.63;;;6.47;92.85
71764;BME280;59602;52.142;5.408;2023-02-22T08:03:33;101417.91;;;6.49;93.30
71764;BME280;59602;52.142;5.408;2023-02-22T08:06:03;101412.94;;;6.51;93.20
71764;BME280;59602;52.142;5.408;2023-02-22T08:08:30;101414.06;;;6.50;93.12
71764;BME280;59602;52.142;5.408;2023-02-22T08:10:57;101417.56;;;6.50;93.28
71764;BME280;59602;52.142;5.408;2023-02-22T08:13:23;101415.78;;;6.54;93.19
71764;BME280;59602;52.142;5.408;2023-02-22T08:15:51;101415.41;;;6.56;93.13
71764;BME280;59602;52.142;5.408;2023-02-22T08:18:20;101413.16;;;6.58;93.06
71764;BME280;59602;52.142;5.408;2023-02-22T08:20:48;101411.69;;;6.60;93.52
71764;BME280;59602;52.142;5.408;2023-02-22T08:23:16;101417.56;;;6.62;93.17
71764;BME280;59602;52.142;5.408;2023-02-22T08:25:43;101413.75;;;6.63;93.24
71764;BME280;59602;52.142;5.408;2023-02-22T08:28:12;101418.00;;;6.64;93.13
71764;BME280;59602;52.142;5.408;2023-02-22T08:30:39;101406.09;;;6.65;93.22
71764;BME280;59602;52.142;5.408;2023-02-22T08:33:11;101410.03;;;6.68;93.00
71764;BME280;59602;52.142;5.408;2023-02-22T08:35:40;101410.03;;;6.68;92.96
71764;BME280;59602;52.142;5.408;2023-02-22T08:38:13;101405.53;;;6.72;93.31
71764;BME280;59602;52.142;5.408;2023-02-22T08:40:40;101406.63;;;6.71;93.28
71764;BME280;59602;52.142;5.408;2023-02-22T08:43:06;101412.81;;;6.72;93.44
71764;BME280;59602;52.142;5.408;2023-02-22T08:45:33;101411.25;;;6.71;93.42
71764;BME280;59602;52.142;5.408;2023-02-22T08:48:00;101410.25;;;6.75;93.24
71764;BME280;59602;52.142;5.408;2023-02-22T08:50:29;101409.09;;;6.76;93.33
71764;BME280;59602;52.142;5.408;2023-02-22T08:52:59;101407.66;;;6.79;93.11
71764;BME280;59602;52.142;5.408;2023-02-22T08:55:28;101409.09;;;6.76;93.17
71764;BME280;59602;52.142;5.408;2023-02-22T08:57:59;101405.38;;;6.81;93.05
71764;BME280;59602;52.142;5.408;2023-02-22T09:00:29;101398.97;;;6.85;93.24
71764;BME280;59602;52.142;5.408;2023-02-22T09:03:01;101394.44;;;6.90;92.91
71764;BME280;59602;52.142;5.408;2023-02-22T09:05:28;101384.97;;;6.96;92.81
71764;BME280;59602;52.142;5.408;2023-02-22T09:07:57;101378.09;;;6.98;92.50
71764;BME280;59602;52.142;5.408;2023-02-22T09:10:26;101385.09;;;6.99;92.57
71764;BME280;59602;52.142;5.408;2023-02-22T09:12:55;101382.47;;;7.03;92.44
71764;BME280;59602;52.142;5.408;2023-02-22T09:15:23;101377.63;;;7.09;92.38
71764;BME280;59602;52.142;5.408;2023-02-22T09:17:51;101374.25;;;7.12;92.28
71764;BME280;59602;52.142;5.408;2023-02-22T09:20:19;101377.06;;;7.15;92.65
71764;BME280;59602;52.142;5.408;2023-02-22T09:22:47;101371.66;;;7.15;92.36
71764;BME280;59602;52.142;5.408;2023-02-22T09:25:15;101375.13;;;7.16;92.69
71764;BME280;59602;52.142;5.408;2023-02-22T09:27:43;101379.44;;;7.17;92.81
71764;BME280;59602;52.142;5.408;2023-02-22T09:30:19;101381.56;;;7.23;92.57
71764;BME280;59602;52.142;5.408;2023-02-22T09:32:51;101370.38;;;7.25;92.12
71764;BME280;59602;52.142;5.408;2023-02-22T09:35:19;101370.94;;;7.31;92.33
71764;BME280;59602;52.142;5.408;2023-02-22T09:37:54;101379.13;;;7.34;91.86
71764;BME280;59602;52.142;5.408;2023-02-22T09:40:21;101378.69;;;7.32;91.76
71764;BME280;59602;52.142;5.408;2023-02-22T09:43:17;101374.09;;;7.33;92.01
71764;BME280;59602;52.142;5.408;2023-02-22T09:45:50;101365.59;;;7.34;91.98
71764;BME280;59602;52.142;5.408;2023-02-22T09:48:21;101372.94;;;7.34;91.88
71764;BME280;59602;52.142;5.408;2023-02-22T09:50:50;101354.56;;;7.39;92.05
71764;BME280;59602;52.142;5.408;2023-02-22T09:53:24;101359.47;;;7.49;91.85
71764;BME280;59602;52.142;5.408;2023-02-22T09:56:13;101344.66;;;7.59;91.56
71764;BME280;59602;52.142;5.408;2023-02-22T09:58:46;101338.28;;;7.67;91.35
71764;BME280;59602;52.142;5.408;2023-02-22T10:01:21;101331.03;;;7.72;91.08
71764;BME280;59602;52.142;5.408;2023-02-22T10:03:57;101333.03;;;7.75;90.93
71764;BME280;59602;52.142;5.408;2023-02-22T10:06:26;101330.88;;;7.80;90.57
71764;BME280;59602;52.142;5.408;2023-02-22T10:08:57;101324.53;;;7.88;90.72
71764;BME280;59602;52.142;5.408;2023-02-22T10:11:39;101318.41;;;7.92;90.57
71764;BME280;59602;52.142;5.408;2023-02-22T10:19:31;101317.63;;;8.07;89.91
71764;BME280;59602;52.142;5.408;2023-02-22T10:35:26;101325.66;;;8.51;89.32
71764;BME280;59602;52.142;5.408;2023-02-22T10:38:20;101321.88;;;8.56;89.43
71764;BME280;59602;52.142;5.408;2023-02-22T10:41:18;101317.31;;;8.60;88.99
71764;BME280;59602;52.142;5.408;2023-02-22T10:43:56;101320.81;;;8.60;88.74
71764;BME280;59602;52.142;5.408;2023-02-22T10:46:29;101311.91;;;8.60;88.62
71764;BME280;59602;52.142;5.408;2023-02-22T10:49:43;101317.81;;;8.65;88.61
71764;BME280;59602;52.142;5.408;2023-02-22T10:52:24;101326.38;;;8.67;88.06
71764;BME280;59602;52.142;5.408;2023-02-22T10:54:54;101325.16;;;8.65;88.01
71764;BME280;59602;52.142;5.408;2023-02-22T10:57:40;101327.16;;;8.68;87.83
71764;BME280;59602;52.142;5.408;2023-02-22T11:02:52;101328.47;;;8.74;87.60
71764;BME280;59602;52.142;5.408;2023-02-22T11:05:27;101315.63;;;8.71;87.12
71764;BME280;59602;52.142;5.408;2023-02-22T11:08:15;101312.97;;;8.75;87.58
71764;BME280;59602;52.142;5.408;2023-02-22T11:10:42;101309.13;;;8.76;87.66
71764;BME280;59602;52.142;5.408;2023-02-22T11:13:32;101312.34;;;8.81;87.67
71764;BME280;59602;52.142;5.408;2023-02-22T11:18:42;101304.34;;;8.88;87.50
71764;BME280;59602;52.142;5.408;2023-02-22T11:21:10;101305.06;;;8.85;87.51
71764;BME280;59602;52.142;5.408;2023-02-22T11:23:41;101309.72;;;8.85;87.80
71764;BME280;59602;52.142;5.408;2023-02-22T11:26:13;101302.44;;;8.89;87.91
71764;BME280;59602;52.142;5.408;2023-02-22T11:28:47;101301.72;;;8.92;87.94
71764;BME280;59602;52.142;5.408;2023-02-22T11:31:20;101306.41;;;8.95;87.68
71764;BME280;59602;52.142;5.408;2023-02-22T11:33:53;101300.66;;;8.97;87.07
71764;BME280;59602;52.142;5.408;2023-02-22T11:36:43;101299.94;;;9.00;87.13
71764;BME280;59602;52.142;5.408;2023-02-22T11:39:53;101295.78;;;9.06;87.11
71764;BME280;59602;52.142;5.408;2023-02-22T11:43:08;101293.22;;;9.13;87.14
71764;BME280;59602;52.142;5.408;2023-02-22T11:45:37;101290.66;;;9.20;87.19
71764;BME280;59602;52.142;5.408;2023-02-22T11:48:18;101293.50;;;9.27;87.06
71764;BME280;59602;52.142;5.408;2023-02-22T11:56:12;101279.84;;;9.24;85.27
71764;BME280;59602;52.142;5.408;2023-02-22T12:01:42;101265.88;;;9.22;85.98
71764;BME280;59602;52.142;5.408;2023-02-22T12:04:19;101272.88;;;9.23;85.98
71764;BME280;59602;52.142;5.408;2023-02-22T12:07:18;101270.09;;;9.19;85.64
71764;BME280;59602;52.142;5.408;2023-02-22T12:10:04;101261.91;;;9.16;85.47
71764;BME280;59602;52.142;5.408;2023-02-22T12:15:28;101267.66;;;9.14;85.17
71764;BME280;59602;52.142;5.408;2023-02-22T12:20:44;101260.00;;;9.20;85.57
71764;BME280;59602;52.142;5.408;2023-02-22T12:23:17;101268.56;;;9.22;85.51
71764;BME280;59602;52.142;5.408;2023-02-22T12:25:55;101265.50;;;9.23;85.34
71764;BME280;59602;52.142;5.408;2023-02-22T12:28:39;101260.16;;;9.27;85.61
71764;BME280;59602;52.142;5.408;2023-02-22T12:33:50;101269.97;;;9.35;85.81
71764;BME280;59602;52.142;5.408;2023-02-22T12:36:24;101267.00;;;9.40;85.74
71764;BME280;59602;52.142;5.408;2023-02-22T12:39:10;101248.03;;;9.44;85.49
71764;BME280;59602;52.142;5.408;2023-02-22T12:41:47;101245.81;;;9.49;85.28
71764;BME280;59602;52.142;5.408;2023-02-22T12:44:24;101251.44;;;9.60;85.81
71764;BME280;59602;52.142;5.408;2023-02-22T12:46:56;101246.91;;;9.68;85.70
71764;BME280;59602;52.142;5.408;2023-02-22T12:49:35;101243.88;;;9.73;85.00
71764;BME280;59602;52.142;5.408;2023-02-22T12:52:12;101245.91;;;9.80;84.64
71764;BME280;59602;52.142;5.408;2023-02-22T12:54:55;101243.19;;;9.80;84.76
71764;BME280;59602;52.142;5.408;2023-02-22T13:00:03;101245.13;;;9.79;84.29
71764;BME280;59602;52.142;5.408;2023-02-22T13:02:43;101242.06;;;9.81;84.06
71764;BME280;59602;52.142;5.408;2023-02-22T13:05:14;101240.56;;;9.83;83.59
71764;BME280;59602;52.142;5.408;2023-02-22T13:07:55;101236.69;;;9.84;83.90
71764;BME280;59602;52.142;5.408;2023-02-22T13:10:34;101240.50;;;9.80;83.77
71764;BME280;59602;52.142;5.408;2023-02-22T13:13:08;101243.69;;;9.85;84.19
71764;BME280;59602;52.142;5.408;2023-02-22T13:18:32;101245.78;;;9.95;84.53
71764;BME280;59602;52.142;5.408;2023-02-22T13:21:14;101234.91;;;9.95;84.28
71764;BME280;59602;52.142;5.408;2023-02-22T13:23:53;101237.59;;;9.92;84.17
71764;BME280;59602;52.142;5.408;2023-02-22T13:26:38;101242.59;;;9.90;83.73
71764;BME280;59602;52.142;5.408;2023-02-22T13:29:19;101242.59;;;9.90;83.64
71764;BME280;59602;52.142;5.408;2023-02-22T13:31:58;101230.97;;;9.89;83.60
71764;BME280;59602;52.142;5.408;2023-02-22T13:37:30;101237.94;;;9.90;83.83
71764;BME280;59602;52.142;5.408;2023-02-22T13:40:11;101237.19;;;9.93;84.03
71764;BME280;59602;52.142;5.408;2023-02-22T13:42:43;101229.13;;;9.97;84.08
71764;BME280;59602;52.142;5.408;2023-02-22T13:45:31;101241.19;;;10.00;83.82
71764;BME280;59602;52.142;5.408;2023-02-22T13:53:19;101230.28;;;9.96;83.91
71764;BME280;59602;52.142;5.408;2023-02-22T13:55:52;101236.13;;;9.98;84.03
71764;BME280;59602;52.142;5.408;2023-02-22T13:58:22;101233.03;;;10.00;83.84
71764;BME280;59602;52.142;5.408;2023-02-22T14:00:52;101238.13;;;10.01;84.30
71764;BME280;59602;52.142;5.408;2023-02-22T14:03:32;101239.66;;;10.02;84.46
71764;BME280;59602;52.142;5.408;2023-02-22T14:06:04;101231.50;;;10.02;84.90
71764;BME280;59602;52.142;5.408;2023-02-22T14:11:00;101240.06;;;10.01;83.96
71764;BME280;59602;52.142;5.408;2023-02-22T14:13:30;101239.66;;;10.02;83.79
71764;BME280;59602;52.142;5.408;2023-02-22T14:18:29;101250.91;;;10.01;83.37
71764;BME280;59602;52.142;5.408;2023-02-22T14:23:41;101253.22;;;9.98;83.16
71764;BME280;59602;52.142;5.408;2023-02-22T14:26:13;101252.00;;;9.96;82.98
71764;BME280;59602;52.142;5.408;2023-02-22T14:31:30;101252.72;;;9.93;83.21
71764;BME280;59602;52.142;5.408;2023-02-22T14:34:11;101254.72;;;9.96;83.42
71764;BME280;59602;52.142;5.408;2023-02-22T14:42:09;101258.25;;;10.00;83.98
71764;BME280;59602;52.142;5.408;2023-02-22T14:47:24;101261.81;;;10.04;83.72
71764;BME280;59602;52.142;5.408;2023-02-22T14:50:05;101254.50;;;10.08;83.88